Time;durP1;ratioP1;P1;durP2;ratioP2;P2;SDS_P1;SDS_P2;PMS_P1;PMS_P2;Temp;Humidity;BMP_temperature;BMP_pressure;BME280_temperature;BME280_humidity;BME280_pressure;Samples;Min_cycle;Max_cycle;Signal;HPM_P1;HPM_P2
2021/05/24 00:02:16;;;;;;;5.57;1.20;;;14.20;67.90;;;;;;5014884;28;20045;-73
2021/05/24 00:04:43;;;;;;;5.43;1.52;;;14.20;67.70;;;;;;5032260;28;20033;-73
2021/05/24 00:07:09;;;;;;;3.92;1.48;;;14.20;67.90;;;;;;5022101;28;20112;-72
2021/05/24 00:09:35;;;;;;;6.20;1.65;;;14.20;68.10;;;;;;5037343;28;20037;-73
2021/05/24 00:12:02;;;;;;;3.25;1.30;;;14.20;68.20;;;;;;5032957;28;20076;-73
2021/05/24 00:14:29;;;;;;;5.57;1.52;;;14.20;68.30;;;;;;5024801;28;20033;-73
2021/05/24 00:16:55;;;;;;;3.75;1.50;;;14.20;68.20;;;;;;5013592;28;20038;-73
2021/05/24 00:19:21;;;;;;;3.83;1.50;;;14.20;68.50;;;;;;5030504;28;20405;-76
2021/05/24 00:21:47;;;;;;;5.28;1.60;;;14.20;68.90;;;;;;5026738;28;20260;-73
2021/05/24 00:24:12;;;;;;;2.90;1.15;;;14.20;69.90;;;;;;5030760;28;20025;-74
2021/05/24 00:26:38;;;;;;;4.63;1.33;;;14.10;70.40;;;;;;5026291;28;20086;-73
2021/05/24 00:29:04;;;;;;;4.18;1.25;;;14.10;71.00;;;;;;5015264;28;20045;-73
2021/05/24 00:31:30;;;;;;;4.75;1.30;;;14.10;71.40;;;;;;5030772;28;20521;-74
2021/05/24 00:33:56;;;;;;;4.80;2.03;;;14.10;71.50;;;;;;5032299;28;20128;-74
2021/05/24 00:36:22;;;;;;;3.50;1.30;;;14.00;71.80;;;;;;5028949;28;20591;-73
2021/05/24 00:38:48;;;;;;;5.53;1.70;;;14.00;73.00;;;;;;5032725;28;20079;-74
2021/05/24 00:41:14;;;;;;;4.10;1.30;;;13.70;73.40;;;;;;5031734;28;20120;-74
2021/05/24 00:43:41;;;;;;;6.90;1.70;;;13.70;73.20;;;;;;5030545;28;20045;-73
2021/05/24 00:46:06;;;;;;;4.97;1.65;;;13.50;73.20;;;;;;5029659;28;20033;-75
2021/05/24 00:48:32;;;;;;;5.03;1.80;;;13.40;73.90;;;;;;5028558;28;20053;-74
2021/05/24 00:50:59;;;;;;;3.50;1.48;;;13.10;73.90;;;;;;5011743;28;20033;-73
2021/05/24 00:53:24;;;;;;;2.45;1.20;;;13.00;74.60;;;;;;5005553;28;20383;-73
2021/05/24 00:55:50;;;;;;;4.45;1.83;;;12.80;75.30;;;;;;5013086;28;20410;-73
2021/05/24 00:58:16;;;;;;;4.00;1.50;;;12.80;76.10;;;;;;5029287;28;20038;-73
2021/05/24 01:00:44;;;;;;;4.75;1.42;;;12.60;76.20;;;;;;5026132;28;20517;-73
2021/05/24 01:03:12;;;;;;;3.83;1.50;;;12.60;76.50;;;;;;5009647;28;20030;-73
2021/05/24 01:05:39;;;;;;;3.97;1.50;;;12.50;77.20;;;;;;5022831;28;20489;-73
2021/05/24 01:08:06;;;;;;;1.90;1.23;;;12.50;77.50;;;;;;5001140;28;20074;-73
2021/05/24 01:10:33;;;;;;;4.60;1.65;;;12.50;77.70;;;;;;5019482;28;20048;-73
2021/05/24 01:12:59;;;;;;;3.67;1.40;;;12.40;78.00;;;;;;5014147;28;20120;-75
2021/05/24 01:15:26;;;;;;;4.85;1.67;;;12.30;78.60;;;;;;5022465;28;20045;-73
2021/05/24 01:17:54;;;;;;;2.80;1.48;;;12.30;79.10;;;;;;5026089;28;20037;-73
2021/05/24 01:20:21;;;;;;;4.47;1.60;;;12.20;79.20;;;;;;5024082;28;20037;-73
2021/05/24 01:22:59;;;;;;;7.38;1.75;;;12.20;79.00;;;;;;5019846;28;20042;-73
2021/05/24 01:25:25;;;;;;;4.32;1.77;;;12.10;78.50;;;;;;5018645;28;20114;-75
2021/05/24 01:27:51;;;;;;;4.78;1.67;;;12.10;78.90;;;;;;5022994;28;20057;-73
2021/05/24 01:30:18;;;;;;;2.53;1.45;;;12.10;79.10;;;;;;5028480;28;20041;-73
2021/05/24 01:32:44;;;;;;;4.15;1.60;;;12.10;78.40;;;;;;5024672;28;20029;-73
2021/05/24 01:35:10;;;;;;;3.80;1.50;;;12.00;78.00;;;;;;5017229;28;20121;-73
2021/05/24 01:37:35;;;;;;;3.40;1.58;;;12.00;78.20;;;;;;5019681;28;20032;-73
2021/05/24 01:40:04;;;;;;;4.50;1.20;;;11.90;78.50;;;;;;5023564;28;20058;-75
2021/05/24 01:42:30;;;;;;;9.05;1.70;;;12.00;78.60;;;;;;5028192;28;20025;-73
2021/05/24 01:44:56;;;;;;;5.18;1.35;;;11.90;78.40;;;;;;5007062;28;20041;-73
2021/05/24 01:47:22;;;;;;;6.63;1.67;;;11.80;78.00;;;;;;5011935;28;20034;-73
2021/05/24 01:49:47;;;;;;;3.95;1.50;;;11.90;78.60;;;;;;5021966;28;20030;-73
2021/05/24 01:52:15;;;;;;;2.17;1.20;;;11.80;77.80;;;;;;5017245;28;20030;-73
2021/05/24 01:54:42;;;;;;;2.42;1.40;;;11.80;78.80;;;;;;5008789;28;20026;-73
2021/05/24 01:57:09;;;;;;;2.60;1.20;;;11.70;78.40;;;;;;5017997;28;20113;-73
2021/05/24 01:59:35;;;;;;;3.50;1.40;;;11.60;78.10;;;;;;5007891;28;20047;-73
2021/05/24 02:02:02;;;;;;;2.90;1.33;;;11.60;78.60;;;;;;5015263;28;20090;-76
2021/05/24 02:04:28;;;;;;;2.45;1.30;;;11.60;78.80;;;;;;5024414;28;20041;-73
2021/05/24 02:06:54;;;;;;;3.97;1.35;;;11.60;78.20;;;;;;5029342;28;20030;-73
2021/05/24 02:09:19;;;;;;;3.60;1.38;;;11.60;79.10;;;;;;5028923;28;20049;-73
2021/05/24 02:11:45;;;;;;;3.63;1.52;;;11.60;78.50;;;;;;5017247;28;20041;-73
2021/05/24 02:14:11;;;;;;;5.38;1.38;;;11.60;79.00;;;;;;5020144;28;20478;-73
2021/05/24 02:16:42;;;;;;;4.07;1.33;;;11.60;79.00;;;;;;5018210;28;20596;-73
2021/05/24 02:19:09;;;;;;;3.63;1.10;;;11.50;78.90;;;;;;5020388;28;20030;-73
2021/05/24 02:21:36;;;;;;;2.00;1.30;;;11.50;79.10;;;;;;5017083;28;20026;-73
2021/05/24 02:24:03;;;;;;;4.00;1.17;;;11.50;78.30;;;;;;5007619;28;20470;-75
2021/05/24 02:26:29;;;;;;;2.97;1.40;;;11.50;78.70;;;;;;5000573;28;20036;-73
2021/05/24 02:28:54;;;;;;;4.13;1.40;;;11.50;79.00;;;;;;5015585;28;20046;-73
2021/05/24 02:31:20;;;;;;;6.70;1.67;;;11.50;78.90;;;;;;5029377;28;20029;-73
2021/05/24 02:33:47;;;;;;;3.67;1.38;;;11.50;78.80;;;;;;5014893;28;20037;-73
2021/05/24 02:36:13;;;;;;;5.53;1.50;;;11.40;79.00;;;;;;5022136;28;20040;-73
2021/05/24 02:38:39;;;;;;;4.75;1.73;;;11.40;79.20;;;;;;5027343;28;20423;-73
2021/05/24 02:41:05;;;;;;;5.75;1.40;;;11.40;79.00;;;;;;5025775;28;20381;-73
2021/05/24 02:43:31;;;;;;;3.47;1.40;;;11.40;79.20;;;;;;5024690;28;20037;-73
2021/05/24 02:45:57;;;;;;;3.70;1.60;;;11.40;79.70;;;;;;5022194;28;20036;-74
2021/05/24 02:48:23;;;;;;;5.40;1.65;;;11.40;80.00;;;;;;5021933;28;20076;-72
2021/05/24 02:50:48;;;;;;;2.40;1.30;;;11.30;80.20;;;;;;5017902;28;20057;-74
2021/05/24 02:53:14;;;;;;;2.85;1.52;;;11.30;80.10;;;;;;5023525;28;20022;-73
2021/05/24 02:55:40;;;;;;;3.40;1.50;;;11.30;80.40;;;;;;5002614;28;20113;-74
2021/05/24 02:58:06;;;;;;;4.07;1.52;;;11.30;80.30;;;;;;5021740;28;20069;-73
2021/05/24 03:00:32;;;;;;;4.03;1.40;;;11.20;80.10;;;;;;5016525;28;20588;-73
2021/05/24 03:02:58;;;;;;;3.20;1.75;;;11.20;80.20;;;;;;5015808;28;20113;-73
2021/05/24 03:05:24;;;;;;;4.85;1.33;;;11.10;79.80;;;;;;5019313;28;20788;-73
2021/05/24 03:07:51;;;;;;;2.90;1.25;;;11.10;79.80;;;;;;5027083;28;20489;-74
2021/05/24 03:10:21;;;;;;;3.08;1.50;;;11.10;79.70;;;;;;5014250;28;20081;-74
2021/05/24 03:12:47;;;;;;;2.17;1.17;;;11.20;79.20;;;;;;5022048;28;20069;-74
2021/05/24 03:15:14;;;;;;;2.88;1.30;;;11.20;77.70;;;;;;5028081;28;20060;-72
2021/05/24 03:17:40;;;;;;;4.43;1.40;;;11.20;78.00;;;;;;5032293;28;20044;-73
2021/05/24 03:20:08;;;;;;;3.75;1.45;;;11.20;78.10;;;;;;5024168;28;20029;-73
2021/05/24 03:22:34;;;;;;;4.57;1.52;;;11.30;78.00;;;;;;5024694;28;20037;-73
2021/05/24 03:24:59;;;;;;;4.43;1.83;;;11.30;78.50;;;;;;5024280;28;20044;-73
2021/05/24 03:27:25;;;;;;;5.07;1.48;;;11.20;78.70;;;;;;5018321;28;20143;-73
2021/05/24 03:29:51;;;;;;;3.80;1.30;;;11.20;79.00;;;;;;5022077;28;20397;-74
2021/05/24 03:32:16;;;;;;;3.22;1.20;;;11.20;79.40;;;;;;5016915;28;20030;-74
2021/05/24 03:34:42;;;;;;;1.77;1.17;;;11.20;79.30;;;;;;5009808;28;20386;-73
2021/05/24 03:37:08;;;;;;;3.25;1.20;;;11.20;79.50;;;;;;5008589;28;20468;-73
2021/05/24 03:39:33;;;;;;;2.90;1.58;;;11.10;80.10;;;;;;5026012;28;20022;-74
2021/05/24 03:41:59;;;;;;;3.55;1.45;;;11.10;80.40;;;;;;5024439;28;20080;-73
2021/05/24 03:44:25;;;;;;;2.60;1.55;;;11.00;80.60;;;;;;5025985;28;20045;-73
2021/05/24 03:46:51;;;;;;;6.10;1.80;;;11.10;81.20;;;;;;5017989;28;20034;-73
2021/05/24 03:49:16;;;;;;;5.25;1.60;;;11.10;81.30;;;;;;5003621;28;20100;-73
2021/05/24 03:51:42;;;;;;;4.47;1.90;;;11.00;80.90;;;;;;5027589;28;20428;-73
2021/05/24 03:54:08;;;;;;;3.78;1.60;;;11.00;81.10;;;;;;5020615;28;20465;-73
2021/05/24 03:56:33;;;;;;;4.72;1.90;;;11.00;81.30;;;;;;5023393;28;20092;-73
2021/05/24 03:59:00;;;;;;;5.93;1.70;;;11.00;81.20;;;;;;5018938;28;20501;-73
2021/05/24 04:01:25;;;;;;;3.92;1.50;;;11.00;81.70;;;;;;5028799;28;20038;-73
2021/05/24 04:03:52;;;;;;;4.90;1.77;;;11.00;81.70;;;;;;5022350;28;20095;-73
2021/05/24 04:06:18;;;;;;;3.45;1.48;;;11.00;81.70;;;;;;5016476;28;20060;-72
2021/05/24 04:08:46;;;;;;;3.80;1.80;;;11.00;81.90;;;;;;5013672;28;20034;-73
2021/05/24 04:11:13;;;;;;;5.63;1.98;;;11.10;82.10;;;;;;5021140;28;20443;-72
2021/05/24 04:13:41;;;;;;;3.20;1.67;;;11.10;82.50;;;;;;5014504;28;20066;-73
2021/05/24 04:16:07;;;;;;;6.90;1.73;;;11.10;82.60;;;;;;5020314;28;20644;-75
2021/05/24 04:18:35;;;;;;;4.07;1.95;;;11.00;82.50;;;;;;5022006;28;20116;-73
2021/05/24 04:21:04;;;;;;;4.18;1.77;;;11.00;82.40;;;;;;5004790;28;20466;-73
2021/05/24 04:23:29;;;;;;;4.93;1.90;;;11.00;82.40;;;;;;4997942;28;20123;-73
2021/05/24 04:25:55;;;;;;;5.90;2.03;;;11.00;82.80;;;;;;5018295;28;20525;-73
2021/05/24 04:28:21;;;;;;;5.18;1.92;;;11.10;82.60;;;;;;5020677;28;20122;-73
2021/05/24 04:30:46;;;;;;;6.65;1.95;;;11.00;82.80;;;;;;5023229;28;20079;-73
2021/05/24 04:33:12;;;;;;;6.32;2.10;;;11.00;83.10;;;;;;5018694;28;20045;-73
2021/05/24 04:35:38;;;;;;;6.00;1.90;;;11.00;83.30;;;;;;5019259;28;20484;-73
2021/05/24 04:38:04;;;;;;;4.82;2.10;;;10.90;83.60;;;;;;5019475;28;20080;-73
2021/05/24 04:40:30;;;;;;;4.10;1.90;;;10.90;83.60;;;;;;5024772;28;20053;-73
2021/05/24 04:42:57;;;;;;;4.28;1.70;;;10.80;83.80;;;;;;5024743;28;20605;-73
2021/05/24 04:45:23;;;;;;;7.00;1.73;;;10.90;83.60;;;;;;5020297;28;20061;-73
2021/05/24 04:47:49;;;;;;;5.60;1.77;;;10.90;83.70;;;;;;5027588;28;20481;-73
2021/05/24 04:50:14;;;;;;;3.55;1.75;;;10.90;83.80;;;;;;5017456;28;20080;-73
2021/05/24 04:52:40;;;;;;;5.63;1.95;;;10.90;83.80;;;;;;5010782;28;20048;-73
2021/05/24 04:55:07;;;;;;;3.92;1.50;;;10.90;83.90;;;;;;5023974;28;20057;-74
2021/05/24 04:57:33;;;;;;;5.72;1.80;;;10.90;83.90;;;;;;5017390;28;20105;-75
2021/05/24 04:59:58;;;;;;;6.60;1.80;;;10.90;84.20;;;;;;5017769;28;20124;-73
2021/05/24 05:02:24;;;;;;;4.60;2.05;;;10.90;84.50;;;;;;5024599;28;20034;-73
2021/05/24 05:04:50;;;;;;;5.70;2.00;;;10.90;84.80;;;;;;5017156;28;20034;-73
2021/05/24 05:07:15;;;;;;;6.68;2.35;;;10.80;85.00;;;;;;5027251;28;20026;-73
2021/05/24 05:09:41;;;;;;;7.75;2.30;;;10.80;85.20;;;;;;5008884;28;20041;-73
2021/05/24 05:12:07;;;;;;;5.75;2.50;;;10.80;85.40;;;;;;5023130;28;20504;-73
2021/05/24 05:14:33;;;;;;;5.40;2.35;;;10.80;85.50;;;;;;5018316;28;20026;-73
2021/05/24 05:17:00;;;;;;;4.60;2.28;;;10.90;85.70;;;;;;5012702;28;20366;-74
2021/05/24 05:19:25;;;;;;;8.45;2.58;;;10.90;85.70;;;;;;5017147;28;20465;-74
2021/05/24 05:21:51;;;;;;;4.68;2.40;;;10.90;85.90;;;;;;5022472;28;20037;-73
2021/05/24 05:24:17;;;;;;;6.10;2.75;;;10.80;86.00;;;;;;5027322;28;20041;-72
2021/05/24 05:26:43;;;;;;;7.63;2.30;;;10.80;86.20;;;;;;5028380;28;20040;-73
2021/05/24 05:29:08;;;;;;;8.20;3.00;;;10.90;86.40;;;;;;5015275;28;20042;-75
2021/05/24 05:31:34;;;;;;;6.93;2.42;;;10.90;86.00;;;;;;5001061;28;20393;-75
2021/05/24 05:34:00;;;;;;;5.63;2.65;;;10.80;86.40;;;;;;4997263;28;20164;-73
2021/05/24 05:36:27;;;;;;;7.28;2.80;;;10.90;86.50;;;;;;5015099;28;21285;-73
2021/05/24 05:38:53;;;;;;;6.22;3.00;;;10.90;86.80;;;;;;5008941;28;20498;-73
2021/05/24 05:41:19;;;;;;;8.88;3.15;;;10.90;86.70;;;;;;4998226;28;20037;-73
2021/05/24 05:43:44;;;;;;;6.10;3.30;;;10.90;86.70;;;;;;5016304;28;20033;-73
2021/05/24 05:46:10;;;;;;;5.63;2.92;;;10.90;86.90;;;;;;5027376;28;20123;-75
2021/05/24 05:48:36;;;;;;;7.75;3.80;;;11.00;86.80;;;;;;5020849;28;20508;-73
2021/05/24 05:51:02;;;;;;;6.55;3.70;;;10.90;86.60;;;;;;5012107;28;20041;-73
2021/05/24 05:53:28;;;;;;;7.82;3.67;;;10.90;86.50;;;;;;5014411;28;20038;-73
2021/05/24 05:55:53;;;;;;;7.65;3.30;;;10.90;86.70;;;;;;5028660;28;20032;-73
2021/05/24 05:58:20;;;;;;;7.45;3.10;;;11.00;86.70;;;;;;5029593;28;20477;-73
2021/05/24 06:00:46;;;;;;;6.38;2.72;;;11.00;86.80;;;;;;5027183;28;20468;-73
2021/05/24 06:03:12;;;;;;;6.22;2.90;;;10.90;86.70;;;;;;5016065;28;20029;-74
2021/05/24 06:05:38;;;;;;;5.78;2.70;;;10.90;86.80;;;;;;5024532;28;21161;-74
2021/05/24 06:08:05;;;;;;;6.47;2.90;;;11.00;86.80;;;;;;5023744;28;20132;-73
2021/05/24 06:10:31;;;;;;;6.95;2.95;;;11.00;87.00;;;;;;5020650;28;20449;-73
2021/05/24 06:12:57;;;;;;;7.13;2.75;;;11.00;86.90;;;;;;5021189;28;20116;-73
2021/05/24 06:15:23;;;;;;;6.43;3.08;;;11.00;87.00;;;;;;5016680;28;20042;-74
2021/05/24 06:17:48;;;;;;;6.45;3.08;;;11.00;86.70;;;;;;5019775;28;20095;-74
2021/05/24 06:20:14;;;;;;;6.47;2.85;;;11.00;86.90;;;;;;4998285;28;20034;-74
2021/05/24 06:22:41;;;;;;;7.38;2.92;;;11.00;86.80;;;;;;5019263;28;20029;-74
2021/05/24 06:25:08;;;;;;;6.63;2.80;;;11.00;86.90;;;;;;5016227;28;20117;-75
2021/05/24 06:27:34;;;;;;;7.25;3.10;;;11.00;86.90;;;;;;5018762;28;20490;-72
2021/05/24 06:30:00;;;;;;;9.80;3.47;;;11.00;86.90;;;;;;5020408;28;20272;-74
2021/05/24 06:32:26;;;;;;;9.18;3.38;;;11.10;87.00;;;;;;5020469;28;20393;-73
2021/05/24 06:34:51;;;;;;;10.45;3.70;;;11.10;86.80;;;;;;5020711;28;20466;-73
2021/05/24 06:37:17;;;;;;;8.45;3.63;;;11.10;87.00;;;;;;4995758;28;20449;-69
2021/05/24 06:39:43;;;;;;;10.40;3.50;;;11.10;86.90;;;;;;5010890;28;20034;-70
2021/05/24 06:42:09;;;;;;;11.52;3.60;;;11.10;86.70;;;;;;5014246;28;20068;-71
2021/05/24 06:44:35;;;;;;;8.18;2.78;;;11.10;86.80;;;;;;5021655;28;20449;-70
2021/05/24 06:47:00;;;;;;;9.55;3.13;;;11.10;86.80;;;;;;5015686;28;20453;-70
2021/05/24 06:49:26;;;;;;;10.63;3.10;;;11.20;86.70;;;;;;5013573;28;20447;-71
2021/05/24 06:51:52;;;;;;;12.15;3.30;;;11.20;86.70;;;;;;5015389;28;20486;-70
2021/05/24 06:54:17;;;;;;;9.50;3.83;;;11.10;86.70;;;;;;5016257;28;20125;-71
2021/05/24 06:56:43;;;;;;;10.68;3.47;;;11.20;86.90;;;;;;5019149;28;20033;-69
2021/05/24 06:59:09;;;;;;;9.65;2.97;;;11.20;86.80;;;;;;5018482;28;20060;-69
2021/05/24 07:01:36;;;;;;;9.30;2.72;;;11.20;86.80;;;;;;5015453;28;20425;-70
2021/05/24 07:04:02;;;;;;;7.55;2.83;;;11.20;87.00;;;;;;5020556;28;20076;-71
2021/05/24 07:06:27;;;;;;;6.90;2.78;;;11.10;87.20;;;;;;5010024;28;20546;-70
2021/05/24 07:08:53;;;;;;;6.35;2.70;;;11.20;87.10;;;;;;4999569;28;20073;-69
2021/05/24 07:11:19;;;;;;;9.32;3.45;;;11.30;87.10;;;;;;5004449;28;20037;-71
2021/05/24 07:13:44;;;;;;;6.22;2.92;;;11.40;86.90;;;;;;5014392;28;20036;-71
2021/05/24 07:16:10;;;;;;;7.57;2.83;;;11.40;86.60;;;;;;5018287;28;20033;-70
2021/05/24 07:18:38;;;;;;;7.70;3.08;;;11.30;86.60;;;;;;5017665;28;20501;-70
2021/05/24 07:21:03;;;;;;;8.70;2.70;;;11.50;86.50;;;;;;5020410;28;20025;-70
2021/05/24 07:23:31;;;;;;;6.00;2.80;;;11.50;86.30;;;;;;5014855;28;20113;-70
2021/05/24 07:25:57;;;;;;;8.13;3.05;;;11.50;86.40;;;;;;5021185;28;20125;-70
2021/05/24 07:28:22;;;;;;;8.65;3.13;;;11.50;86.50;;;;;;5019706;28;20124;-71
2021/05/24 07:30:48;;;;;;;12.02;5.93;;;11.60;86.50;;;;;;5018240;28;20038;-70
2021/05/24 07:33:14;;;;;;;9.93;3.75;;;11.70;86.00;;;;;;5010232;28;20128;-70
2021/05/24 07:35:39;;;;;;;10.60;3.97;;;11.60;85.90;;;;;;5014851;28;20481;-69
2021/05/24 07:38:05;;;;;;;6.60;3.08;;;11.80;85.90;;;;;;5015157;28;20148;-69
2021/05/24 07:40:31;;;;;;;5.32;2.60;;;12.00;85.60;;;;;;5018765;28;20535;-70
2021/05/24 07:42:56;;;;;;;8.18;3.10;;;11.90;84.90;;;;;;5017446;28;20045;-72
2021/05/24 07:45:22;;;;;;;6.50;2.92;;;12.00;84.80;;;;;;5015230;28;20052;-70
2021/05/24 07:47:47;;;;;;;6.18;2.60;;;12.10;85.00;;;;;;5012262;28;20041;-71
2021/05/24 07:50:13;;;;;;;8.98;2.90;;;12.20;84.60;;;;;;5017210;28;20536;-70
2021/05/24 07:52:39;;;;;;;6.53;2.90;;;12.20;84.70;;;;;;5006542;28;20207;-71
2021/05/24 07:55:06;;;;;;;9.65;3.03;;;12.40;83.90;;;;;;5003832;28;20033;-70
2021/05/24 07:57:33;;;;;;;7.97;3.05;;;12.60;83.90;;;;;;5013109;28;20036;-71
2021/05/24 07:59:58;;;;;;;7.40;2.80;;;12.60;83.20;;;;;;5017110;28;20038;-69
2021/05/24 08:02:24;;;;;;;8.27;2.90;;;12.70;83.40;;;;;;5014944;28;20034;-70
2021/05/24 08:04:50;;;;;;;8.52;3.13;;;12.70;82.70;;;;;;5017991;28;20497;-70
2021/05/24 08:07:17;;;;;;;10.05;3.85;;;12.60;83.10;;;;;;5018100;28;20117;-69
2021/05/24 08:09:42;;;;;;;9.23;3.42;;;12.60;83.00;;;;;;5019316;28;20049;-70
2021/05/24 08:12:08;;;;;;;8.23;3.22;;;12.60;83.10;;;;;;5018140;28;20033;-70
2021/05/24 08:14:34;;;;;;;6.28;3.35;;;12.60;83.10;;;;;;5017831;28;20144;-69
2021/05/24 08:16:59;;;;;;;7.72;3.13;;;12.60;83.20;;;;;;5023598;28;20036;-68
2021/05/24 08:19:25;;;;;;;8.52;3.67;;;12.60;82.90;;;;;;5010424;28;20034;-71
2021/05/24 08:21:51;;;;;;;6.18;3.65;;;12.60;83.20;;;;;;5017622;28;20038;-70
2021/05/24 08:24:18;;;;;;;6.00;3.00;;;12.70;82.80;;;;;;5019664;28;20061;-70
2021/05/24 08:26:45;;;;;;;5.22;2.63;;;12.70;82.10;;;;;;5020936;28;20029;-71
2021/05/24 08:29:10;;;;;;;4.90;2.80;;;12.60;81.90;;;;;;5037680;28;20057;-73
2021/05/24 08:31:37;;;;;;;6.07;2.70;;;12.50;81.80;;;;;;5011857;28;20133;-72
2021/05/24 08:34:04;;;;;;;5.88;2.70;;;12.50;82.10;;;;;;5015207;28;20124;-70
2021/05/24 08:36:30;;;;;;;3.60;2.10;;;12.50;82.40;;;;;;5017869;28;20423;-70
2021/05/24 08:38:56;;;;;;;5.93;2.90;;;12.60;82.70;;;;;;5020054;28;20049;-70
2021/05/24 08:41:22;;;;;;;5.85;2.53;;;12.60;82.10;;;;;;5019479;28;20041;-70
2021/05/24 08:43:47;;;;;;;3.92;2.22;;;12.70;82.60;;;;;;5021692;28;20044;-70
2021/05/24 08:46:13;;;;;;;5.22;2.20;;;12.90;82.10;;;;;;5021716;28;20061;-70
2021/05/24 08:48:40;;;;;;;4.75;2.20;;;13.00;81.30;;;;;;5020463;28;20408;-69
2021/05/24 08:51:06;;;;;;;4.28;2.03;;;13.20;80.80;;;;;;5021499;28;20485;-70
2021/05/24 08:53:33;;;;;;;5.53;2.20;;;13.50;80.10;;;;;;5022372;28;20116;-70
2021/05/24 08:55:59;;;;;;;4.05;2.00;;;13.80;79.10;;;;;;5020476;28;20029;-74
2021/05/24 08:58:24;;;;;;;2.63;1.63;;;14.10;79.30;;;;;;5020494;28;22201;-72
2021/05/24 09:00:51;;;;;;;3.15;1.70;;;14.30;76.70;;;;;;5023118;28;20137;-71
2021/05/24 09:03:20;;;;;;;3.50;1.55;;;14.40;76.80;;;;;;5020467;28;20745;-70
2021/05/24 09:05:47;;;;;;;6.13;1.92;;;14.50;75.40;;;;;;5021200;28;20042;-74
2021/05/24 09:08:13;;;;;;;3.38;1.75;;;14.50;75.50;;;;;;5021851;28;20076;-75
2021/05/24 09:10:47;;;;;;;6.10;2.20;;;14.40;75.00;;;;;;5020538;28;20050;-71
2021/05/24 09:13:19;;;;;;;3.78;1.80;;;14.50;75.40;;;;;;5020899;28;20108;-74
2021/05/24 09:15:46;;;;;;;5.35;2.10;;;14.00;76.90;;;;;;5020641;28;20034;-74
2021/05/24 09:18:14;;;;;;;4.30;1.90;;;13.80;77.90;;;;;;5018639;28;20394;-73
2021/05/24 09:20:42;;;;;;;4.25;2.33;;;13.60;79.20;;;;;;5021205;28;20096;-72
2021/05/24 09:23:38;;;;;;;5.03;2.20;;;13.30;80.20;;;;;;5019310;28;20041;-71
2021/05/24 09:26:08;;;;;;;6.38;2.45;;;13.10;80.60;;;;;;5015449;28;20400;-72
2021/05/24 09:28:49;;;;;;;6.13;2.60;;;13.10;81.10;;;;;;5024843;28;20568;-71
2021/05/24 09:31:31;;;;;;;6.65;2.55;;;13.00;81.90;;;;;;5017090;28;20042;-71
2021/05/24 09:33:59;;;;;;;6.25;2.53;;;12.90;82.20;;;;;;5009329;28;20091;-71
2021/05/24 09:36:26;;;;;;;6.90;3.10;;;13.10;83.30;;;;;;5025633;28;20056;-71
2021/05/24 09:39:02;;;;;;;5.90;2.53;;;13.10;83.00;;;;;;5022527;28;20538;-71
2021/05/24 09:41:28;;;;;;;6.35;2.92;;;13.10;83.20;;;;;;5021132;28;20048;-72
2021/05/24 09:43:54;;;;;;;6.18;3.00;;;13.10;83.10;;;;;;5021110;28;20025;-72
2021/05/24 09:46:20;;;;;;;7.38;2.85;;;13.30;83.40;;;;;;5021656;28;20125;-71
2021/05/24 09:48:49;;;;;;;5.93;3.10;;;13.40;82.10;;;;;;5019248;28;20038;-73
2021/05/24 09:51:18;;;;;;;4.57;2.50;;;13.60;82.30;;;;;;5022514;28;20105;-72
2021/05/24 09:54:04;;;;;;;6.32;2.53;;;13.80;81.40;;;;;;5020183;28;20049;-72
2021/05/24 09:56:32;;;;;;;5.50;2.65;;;13.90;80.60;;;;;;5025250;28;20073;-71
2021/05/24 09:59:09;;;;;;;5.38;2.15;;;14.10;80.60;;;;;;5027139;28;20389;-71
2021/05/24 10:01:42;;;;;;;5.80;2.40;;;14.30;79.70;;;;;;5021972;28;20033;-71
2021/05/24 10:04:11;;;;;;;5.32;2.67;;;14.50;79.90;;;;;;5019627;28;20041;-71
2021/05/24 10:06:38;;;;;;;5.95;2.45;;;14.60;80.00;;;;;;5020284;28;20038;-72
2021/05/24 10:09:06;;;;;;;5.22;2.38;;;15.00;78.20;;;;;;5021076;28;20045;-71
2021/05/24 10:11:33;;;;;;;5.53;2.20;;;15.50;77.30;;;;;;5020697;28;21296;-72
2021/05/24 10:14:00;;;;;;;5.82;2.58;;;15.90;76.60;;;;;;5020981;28;20041;-73
2021/05/24 10:16:31;;;;;;;6.22;2.35;;;16.40;74.20;;;;;;5015947;28;20068;-72
2021/05/24 10:18:57;;;;;;;6.78;2.45;;;16.50;73.50;;;;;;5022639;28;20513;-73
2021/05/24 10:21:24;;;;;;;7.80;2.92;;;16.70;74.20;;;;;;5017449;28;20030;-71
2021/05/24 10:23:51;;;;;;;7.55;2.70;;;17.00;71.70;;;;;;5018744;28;20128;-73
2021/05/24 10:26:19;;;;;;;5.30;2.42;;;16.80;71.20;;;;;;5016929;28;20083;-70
2021/05/24 10:28:47;;;;;;;7.85;2.90;;;16.50;69.30;;;;;;5019801;28;20044;-72
2021/05/24 10:31:19;;;;;;;7.13;2.80;;;16.30;70.40;;;;;;5018008;28;20782;-72
2021/05/24 10:33:46;;;;;;;7.43;2.70;;;16.10;70.90;;;;;;5020369;28;20105;-72
2021/05/24 10:36:25;;;;;;;4.60;2.30;;;15.90;72.70;;;;;;5017870;28;20056;-72
2021/05/24 10:39:03;;;;;;;5.53;2.40;;;15.60;72.50;;;;;;5019011;28;20034;-73
2021/05/24 10:41:43;;;;;;;4.53;2.03;;;15.60;72.80;;;;;;5027346;28;20428;-72
2021/05/24 10:44:10;;;;;;;5.65;2.38;;;15.60;70.10;;;;;;5018873;28;20033;-72
2021/05/24 10:46:36;;;;;;;5.28;2.10;;;15.40;67.60;;;;;;5019379;28;20198;-73
2021/05/24 10:49:15;;;;;;;5.68;2.65;;;15.60;68.10;;;;;;5018459;28;20056;-73
2021/05/24 10:51:47;;;;;;;5.57;2.17;;;16.00;66.10;;;;;;5016486;28;20446;-73
2021/05/24 10:54:19;;;;;;;5.25;2.50;;;15.90;66.70;;;;;;5019713;28;20157;-72
2021/05/24 10:57:06;;;;;;;8.43;2.78;;;16.20;67.60;;;;;;5018704;28;20045;-72
2021/05/24 11:02:28;;;;;;;10.07;3.53;;;17.20;66.40;;;;;;5016328;28;20133;-74
2021/05/24 11:05:02;;;;;;;6.95;2.50;;;17.60;65.80;;;;;;5021972;28;20092;-73
2021/05/24 11:07:42;;;;;;;6.68;2.80;;;17.30;63.40;;;;;;5013705;28;20053;-72
2021/05/24 11:10:29;;;;;;;7.85;3.03;;;16.90;64.20;;;;;;5016222;28;20105;-72
2021/05/24 11:13:10;;;;;;;5.53;2.80;;;16.00;68.60;;;;;;5014895;28;20044;-73
2021/05/24 11:15:37;;;;;;;6.78;2.95;;;15.60;69.50;;;;;;5009327;28;20030;-72
2021/05/24 11:18:03;;;;;;;6.70;3.10;;;15.10;70.30;;;;;;5016614;28;20040;-73
2021/05/24 11:20:50;;;;;;;7.25;3.35;;;15.30;71.10;;;;;;5018764;28;20045;-72
2021/05/24 11:26:14;;;;;;;8.07;2.97;;;16.20;70.50;;;;;;4998294;28;20034;-73
2021/05/24 11:28:51;;;;;;;9.52;3.17;;;16.50;70.40;;;;;;5018694;28;20049;-73
2021/05/24 11:31:26;;;;;;;6.50;3.30;;;16.60;69.40;;;;;;5031719;28;20037;-73
2021/05/24 11:33:54;;;;;;;6.13;3.10;;;16.70;70.00;;;;;;5017371;28;20041;-72
2021/05/24 11:36:36;;;;;;;9.30;3.80;;;16.70;67.40;;;;;;5016036;28;20830;-72
2021/05/24 11:39:16;;;;;;;7.45;3.20;;;17.10;70.40;;;;;;5018348;28;20042;-71
2021/05/24 11:42:04;;;;;;;6.22;2.70;;;17.30;68.60;;;;;;5017386;28;20630;-72
2021/05/24 11:44:51;;;;;;;6.13;2.22;;;17.60;62.90;;;;;;4995182;28;20049;-72
2021/05/24 11:47:27;;;;;;;6.47;2.53;;;17.90;59.40;;;;;;5016084;28;20377;-71
2021/05/24 11:50:01;;;;;;;4.38;1.58;;;17.90;55.40;;;;;;5022145;28;20600;-72
2021/05/24 11:52:29;;;;;;;6.03;1.65;;;18.10;54.90;;;;;;4992648;28;20026;-72
2021/05/24 11:54:55;;;;;;;6.07;2.08;;;18.60;54.90;;;;;;4995226;28;20493;-72
2021/05/24 11:57:23;;;;;;;8.25;1.98;;;18.60;54.70;;;;;;4998833;28;20049;-72
2021/05/24 11:59:50;;;;;;;4.32;1.58;;;18.80;51.70;;;;;;5004070;28;20410;-72
2021/05/24 12:02:16;;;;;;;5.85;2.05;;;18.60;52.10;;;;;;5001772;28;20356;-72
2021/05/24 12:04:45;;;;;;;5.88;1.70;;;18.80;54.70;;;;;;5016550;28;20026;-72
2021/05/24 12:07:14;;;;;;;4.75;2.10;;;18.80;52.10;;;;;;5017929;28;20060;-72
2021/05/24 12:09:51;;;;;;;5.45;2.13;;;19.00;50.60;;;;;;5018943;28;20610;-72
2021/05/24 12:12:19;;;;;;;4.93;1.80;;;18.60;53.60;;;;;;4996809;28;20069;-72
2021/05/24 12:14:50;;;;;;;4.72;1.80;;;18.10;54.20;;;;;;5005143;28;20037;-73
2021/05/24 12:17:21;;;;;;;5.13;1.90;;;18.10;55.40;;;;;;4992976;28;20666;-73
2021/05/24 12:19:51;;;;;;;7.43;1.85;;;18.70;53.40;;;;;;4995990;28;20505;-73
2021/05/24 12:22:17;;;;;;;5.22;2.03;;;19.20;53.70;;;;;;5002138;28;20334;-73
2021/05/24 12:24:45;;;;;;;4.35;1.60;;;19.40;51.50;;;;;;4994270;28;20031;-71
2021/05/24 12:27:12;;;;;;;6.78;1.90;;;19.00;52.30;;;;;;4990047;28;20092;-72
2021/05/24 12:29:54;;;;;;;5.63;2.15;;;19.20;52.90;;;;;;5003725;28;20045;-72
2021/05/24 12:32:35;;;;;;;4.90;1.77;;;19.10;52.90;;;;;;4995672;28;20482;-72
2021/05/24 12:35:06;;;;;;;6.60;2.00;;;18.80;53.70;;;;;;5004853;28;20042;-72
2021/05/24 12:37:33;;;;;;;5.63;2.08;;;18.50;54.50;;;;;;4994718;28;20026;-72
2021/05/24 12:40:02;;;;;;;4.70;1.83;;;18.30;54.90;;;;;;4997430;28;20485;-72
2021/05/24 12:42:27;;;;;;;5.50;1.92;;;18.50;55.40;;;;;;5017139;28;20030;-71
2021/05/24 12:45:00;;;;;;;6.85;1.85;;;18.60;54.10;;;;;;5009411;28;20386;-72
2021/05/24 12:47:26;;;;;;;4.93;1.80;;;19.00;52.40;;;;;;5012529;28;20030;-72
2021/05/24 12:49:51;;;;;;;4.38;1.88;;;18.90;49.80;;;;;;5018314;28;20408;-72
2021/05/24 12:52:17;;;;;;;5.20;1.58;;;19.10;50.00;;;;;;5013858;28;20068;-72
2021/05/24 12:54:47;;;;;;;3.25;1.50;;;19.50;50.60;;;;;;5019459;28;20030;-72